»·PEaware :: N66P KEMT-KPSP

N66P :: KEMT-KPSP

FLIGHT INFORMATION

Flight Status: Arrived
Operator: Privately registered:
United States
More flights under this callsign
Pilot: Scott C. (31939)
Aircraft: CESSNA 172 SKYHAWK
(C172)
More flights by this aircraft type
Origin: KEMT El Monte
United States
Destination: KPSP Palm Springs Intl
United States
More flights between these airports :: More routes between these airports
Route: +
File this flight plan on PilotEdge
Remarks: FFE
Altitude:
(Current/Filed)
7,500ft
Speed:
(Current/Filed)
0kts
Departed: 09-Oct-20 08:57 AM
Arrived: 09-Oct-20 09:59 AM
Distance/Time
Traveled:
78nm/1:02
Distance/Time
To Go:
Arrived

Flight Plot

Page will automatically refresh every two minutes.


Map Options




Map Legend


Flown Route
Filed Route
Departure Airport
Arrival Airport
Navaid (VOR, NDB)
Fix

Horizontal Profiles

Position Reports

Time Latitude Longitude Heading Altitude Ground
Speed
09-Oct-20 08:43 34.084331 -118.034375 25 293ft 0kts
09-Oct-20 08:43 34.084331 -118.034375 25 293ft 0kts
09-Oct-20 08:45 34.084331 -118.034375 25 293ft 0kts
09-Oct-20 08:45 34.084331 -118.034375 25 293ft 0kts
09-Oct-20 08:46 34.085206 -118.034680 25 295ft 7kts
09-Oct-20 08:47 34.088139 -118.033072 333 297ft 0kts
09-Oct-20 08:48 34.088139 -118.033072 333 297ft 0kts
09-Oct-20 08:49 34.088139 -118.033072 333 297ft 0kts
09-Oct-20 08:50 34.088139 -118.033072 333 297ft 0kts
09-Oct-20 08:51 34.088139 -118.033072 333 297ft 0kts
09-Oct-20 08:52 34.088305 -118.032961 41 297ft 12kts
09-Oct-20 08:53 34.090727 -118.031648 300 297ft 0kts
09-Oct-20 08:54 34.090727 -118.031648 300 297ft 0kts
09-Oct-20 08:55 34.090775 -118.031734 304 297ft 10kts
09-Oct-20 08:56 34.077847 -118.039289 204 526ft 88kts
09-Oct-20 08:57 34.056442 -118.050044 201 1355ft 86kts
09-Oct-20 08:58 34.038153 -118.040870 98 1921ft 103kts
09-Oct-20 08:59 34.031412 -118.005219 106 2227ft 116kts
09-Oct-20 09:00 34.008834 -117.982255 150 2739ft 99kts
09-Oct-20 09:01 33.986371 -117.967017 152 3492ft 87kts
09-Oct-20 09:02 33.965896 -117.953188 152 4181ft 89kts
09-Oct-20 09:03 33.946787 -117.933151 115 4038ft 99kts
09-Oct-20 09:04 33.935616 -117.905560 120 3336ft 75kts
09-Oct-20 09:05 33.922814 -117.879025 120 3348ft 102kts
09-Oct-20 09:06 33.908094 -117.849000 120 3352ft 105kts
09-Oct-20 09:07 33.896072 -117.816752 109 3354ft 106kts
09-Oct-20 09:08 33.888776 -117.783058 103 3529ft 91kts
09-Oct-20 09:09 33.883189 -117.754177 103 3966ft 106kts
09-Oct-20 09:10 33.875863 -117.716784 103 4253ft 118kts
09-Oct-20 09:11 33.868521 -117.679435 103 4729ft 111kts
09-Oct-20 09:12 33.861610 -117.644225 103 5229ft 103kts
09-Oct-20 09:13 33.855164 -117.611292 103 5729ft 98kts
09-Oct-20 09:14 33.848998 -117.579647 103 6232ft 96kts
09-Oct-20 09:15 33.860934 -117.554488 45 6732ft 92kts
09-Oct-20 09:16 33.878493 -117.532360 45 7231ft 90kts
09-Oct-20 09:17 33.896925 -117.508016 47 7448ft 112kts
09-Oct-20 09:18 33.914873 -117.476073 82 7457ft 121kts
09-Oct-20 09:19 33.914651 -117.435285 93 7453ft 122kts
09-Oct-20 09:20 33.912929 -117.394388 92 7454ft 122kts
09-Oct-20 09:21 33.911259 -117.353443 92 7454ft 122kts
09-Oct-20 09:34 33.896821 -117.012259 93 7454ft 106kts
09-Oct-20 09:35 33.891919 -116.985789 73 5945ft 114kts
09-Oct-20 09:36 33.902296 -116.944562 76 5009ft 113kts
09-Oct-20 09:37 33.908071 -116.909538 80 5045ft 110kts
09-Oct-20 09:38 33.915325 -116.869311 80 4283ft 120kts
09-Oct-20 09:39 33.919357 -116.829241 84 3829ft 116kts
09-Oct-20 09:40 33.924259 -116.792370 75 3988ft 105kts
09-Oct-20 09:41 33.938324 -116.781813 253 4401ft 106kts
09-Oct-20 09:42 33.937460 -116.780929 254 4458ft 124kts
09-Oct-20 09:43 33.937905 -116.778970 265 4103ft 124kts
09-Oct-20 09:44 33.936791 -116.772328 308 4048ft 115kts
09-Oct-20 09:45 33.926535 -116.767629 80 3774ft 119kts
09-Oct-20 09:46 33.929830 -116.729037 84 3369ft 106kts
09-Oct-20 09:47 33.930297 -116.693444 95 3229ft 104kts
09-Oct-20 09:48 33.926019 -116.659623 99 3263ft 101kts
09-Oct-20 09:49 33.918401 -116.626596 103 3286ft 102kts
09-Oct-20 09:50 33.910509 -116.593757 116 3176ft 95kts
09-Oct-20 09:51 33.896805 -116.566002 111 2552ft 99kts
09-Oct-20 09:52 33.885717 -116.536935 130 2206ft 95kts
09-Oct-20 09:53 33.864227 -116.517843 158 1613ft 93kts
09-Oct-20 09:54 33.841216 -116.506367 153 1432ft 77kts
09-Oct-20 09:55 33.827411 -116.486138 119 1126ft 73kts
09-Oct-20 09:56 33.814299 -116.487445 271 981ft 67kts
09-Oct-20 09:57 33.826608 -116.502122 326 416ft 43kts
09-Oct-20 09:58 33.830014 -116.504388 56 432ft 0kts
09-Oct-20 09:59 33.829815 -116.503932 144 431ft 10kts
09-Oct-20 10:00 33.825645 -116.500221 144 409ft 20kts
09-Oct-20 10:01 33.824419 -116.498592 49 407ft 0kts
09-Oct-20 10:02 33.824419 -116.498592 49 407ft 0kts
09-Oct-20 10:03 33.824419 -116.498592 49 407ft 0kts
09-Oct-20 10:04 33.824419 -116.498592 49 407ft 0kts
09-Oct-20 10:05 33.824419 -116.498592 49 407ft 0kts
09-Oct-20 10:06 33.824419 -116.498592 49 407ft 0kts
09-Oct-20 10:07 33.824419 -116.498592 49 407ft 0kts
09-Oct-20 10:08 33.824419 -116.498592 49 407ft 0kts
09-Oct-20 10:09 33.824419 -116.498592 49 407ft 0kts
09-Oct-20 10:10 33.824419 -116.498592 49 407ft 0kts
09-Oct-20 10:11 33.824419 -116.498592 49 407ft 0kts
09-Oct-20 10:12 33.824419 -116.498592 49 407ft 0kts

Navigation Log

Ident Type
Flight plan parsing failed, navigation log unavailable